Time;durP1;ratioP1;P1;durP2;ratioP2;P2;SDS_P1;SDS_P2;PMS_P1;PMS_P2;Temp;Humidity;BMP_temperature;BMP_pressure;BME280_temperature;BME280_humidity;BME280_pressure;Samples;Min_cycle;Max_cycle;Signal;HPM_P1;HPM_P2
2023/05/01 00:01:20;;;;;;;6.20;5.60;;;19.00;48.60;;;;;;4944379;28;20444;-57
2023/05/01 00:03:51;;;;;;;6.47;5.97;;;18.90;48.30;;;;;;4956032;28;20430;-57
2023/05/01 00:06:17;;;;;;;6.77;6.07;;;18.90;48.50;;;;;;4954401;28;20431;-56
2023/05/01 00:08:42;;;;;;;7.80;6.30;;;19.00;48.60;;;;;;4957986;28;20473;-57
2023/05/01 00:11:11;;;;;;;7.60;6.90;;;19.00;48.50;;;;;;4952151;28;20203;-57
2023/05/01 00:13:37;;;;;;;7.57;6.87;;;19.10;48.30;;;;;;4940378;28;20196;-56
2023/05/01 00:16:10;;;;;;;6.87;6.17;;;19.10;48.20;;;;;;4945556;28;20505;-57
2023/05/01 00:18:36;;;;;;;7.20;6.17;;;19.10;47.90;;;;;;4945906;28;20641;-57
2023/05/01 00:21:02;;;;;;;6.37;5.87;;;19.10;48.00;;;;;;4941882;28;20459;-57
2023/05/01 00:23:27;;;;;;;6.17;5.67;;;19.10;48.10;;;;;;4961757;28;20239;-57
2023/05/01 00:25:53;;;;;;;8.87;7.37;;;19.10;48.30;;;;;;4933798;28;20226;-57
2023/05/01 00:28:19;;;;;;;7.40;6.70;;;19.10;47.80;;;;;;4934559;28;20637;-57
2023/05/01 00:30:45;;;;;;;7.10;6.40;;;19.10;47.80;;;;;;4941421;28;20706;-57
2023/05/01 00:33:11;;;;;;;6.63;6.03;;;19.10;47.80;;;;;;4941830;28;20247;-57
2023/05/01 00:35:37;;;;;;;11.73;7.03;;;19.10;47.80;;;;;;4936077;28;20495;-57
2023/05/01 00:38:02;;;;;;;7.90;6.17;;;19.10;47.80;;;;;;4947674;28;20644;-57
2023/05/01 00:40:28;;;;;;;6.60;6.00;;;19.00;47.70;;;;;;4939529;28;20192;-57
2023/05/01 00:42:54;;;;;;;6.83;6.20;;;18.90;47.80;;;;;;4943936;28;20185;-56
2023/05/01 00:45:20;;;;;;;6.30;5.70;;;18.80;48.30;;;;;;4934627;28;20204;-57
2023/05/01 00:47:45;;;;;;;6.77;6.17;;;18.40;49.20;;;;;;4945031;28;20459;-57
2023/05/01 00:50:12;;;;;;;6.53;6.03;;;18.40;49.80;;;;;;4944534;28;20204;-57
2023/05/01 00:52:38;;;;;;;5.87;5.33;;;18.40;49.30;;;;;;4951351;28;20192;-57
2023/05/01 00:55:04;;;;;;;6.77;6.27;;;18.40;49.70;;;;;;4943662;28;20542;-57
2023/05/01 00:57:31;;;;;;;7.17;5.80;;;18.30;49.60;;;;;;4938784;28;20455;-57
2023/05/01 00:59:57;;;;;;;6.47;5.87;;;18.40;49.90;;;;;;4945497;28;20490;-56
2023/05/01 01:02:23;;;;;;;6.73;5.90;;;18.40;49.80;;;;;;4945853;28;20471;-57
2023/05/01 01:04:49;;;;;;;8.27;6.47;;;18.40;49.80;;;;;;4944556;28;20283;-57
2023/05/01 01:07:38;;;;;;;6.90;6.30;;;18.40;49.70;;;;;;4941989;28;20444;-57
2023/05/01 01:10:19;;;;;;;6.87;6.20;;;18.40;49.90;;;;;;4947469;28;20848;-57
2023/05/01 01:13:03;;;;;;;7.30;6.57;;;18.40;49.80;;;;;;4943014;28;20467;-56
2023/05/01 01:15:35;;;;;;;10.93;6.73;;;18.50;49.60;;;;;;4945938;28;20988;-57
2023/05/01 01:18:12;;;;;;;7.20;6.60;;;18.60;49.80;;;;;;4948745;28;20447;-57
2023/05/01 01:20:48;;;;;;;7.07;6.47;;;18.60;49.30;;;;;;4948349;28;20535;-57
2023/05/01 01:23:41;;;;;;;5.70;5.30;;;18.70;49.20;;;;;;4944687;28;20448;-57
2023/05/01 01:26:44;;;;;;;7.67;6.87;;;18.80;49.00;;;;;;4945706;28;20487;-57
2023/05/01 01:29:25;;;;;;;6.83;6.23;;;18.80;48.90;;;;;;4948788;28;20447;-57
2023/05/01 01:32:08;;;;;;;7.10;6.40;;;18.80;48.90;;;;;;4942486;28;20858;-57
2023/05/01 01:34:42;;;;;;;6.90;6.30;;;18.80;49.00;;;;;;4945616;28;20580;-57
2023/05/01 01:37:19;;;;;;;6.97;6.37;;;18.80;48.90;;;;;;4940207;28;20567;-57
2023/05/01 01:39:53;;;;;;;6.23;5.73;;;18.80;48.60;;;;;;4952960;28;20452;-57
2023/05/01 01:42:25;;;;;;;7.00;6.40;;;18.80;48.70;;;;;;4936542;28;20481;-56
2023/05/01 01:44:55;;;;;;;6.40;5.90;;;18.80;48.50;;;;;;4941415;28;20439;-57
2023/05/01 01:47:27;;;;;;;6.17;5.67;;;18.80;48.60;;;;;;4940355;28;20539;-57
2023/05/01 01:49:55;;;;;;;6.83;6.20;;;18.70;48.70;;;;;;4942281;28;20934;-57
2023/05/01 01:52:22;;;;;;;6.80;6.10;;;18.70;48.50;;;;;;4940854;28;20466;-57
2023/05/01 01:54:53;;;;;;;8.10;5.73;;;18.80;48.50;;;;;;4943457;28;20495;-57
2023/05/01 01:57:21;;;;;;;6.80;6.20;;;18.70;48.50;;;;;;4938158;28;20443;-57
2023/05/01 01:59:48;;;;;;;7.10;6.43;;;18.70;48.60;;;;;;4941960;28;20453;-57
2023/05/01 02:02:17;;;;;;;6.77;6.27;;;18.70;49.00;;;;;;4938917;28;20441;-57
2023/05/01 02:04:44;;;;;;;9.80;6.53;;;18.60;48.80;;;;;;4946407;28;20446;-56
2023/05/01 02:07:11;;;;;;;9.70;5.67;;;18.60;48.90;;;;;;4938018;28;20535;-57
2023/05/01 02:09:38;;;;;;;6.70;6.20;;;18.60;49.20;;;;;;4941948;28;20582;-56
2023/05/01 02:12:07;;;;;;;7.43;6.73;;;18.60;49.20;;;;;;4943534;28;20451;-57
2023/05/01 02:14:33;;;;;;;6.90;6.30;;;18.60;48.80;;;;;;4937356;28;20494;-57
2023/05/01 02:17:01;;;;;;;7.80;6.13;;;18.60;48.70;;;;;;4939347;28;20454;-57
2023/05/01 02:19:28;;;;;;;6.80;6.23;;;18.50;48.90;;;;;;4949825;28;20533;-57
2023/05/01 02:21:56;;;;;;;7.03;6.33;;;18.40;49.00;;;;;;4951903;28;20582;-57
2023/05/01 02:24:23;;;;;;;6.57;5.80;;;18.40;49.60;;;;;;4948647;28;20452;-57
2023/05/01 02:26:54;;;;;;;6.70;6.10;;;18.40;49.50;;;;;;4953365;28;20440;-57
2023/05/01 02:29:19;;;;;;;6.20;5.70;;;18.40;49.60;;;;;;4945506;28;20895;-57
2023/05/01 02:31:45;;;;;;;6.30;5.80;;;18.50;50.00;;;;;;4955126;28;20523;-57
2023/05/01 02:34:11;;;;;;;6.60;6.00;;;18.50;49.60;;;;;;4950864;28;20251;-57
2023/05/01 02:36:36;;;;;;;6.87;6.33;;;18.50;49.30;;;;;;4952524;28;20770;-57
2023/05/01 02:39:02;;;;;;;6.87;6.27;;;18.60;49.20;;;;;;4944091;28;20679;-57
2023/05/01 02:41:30;;;;;;;7.23;5.87;;;18.60;49.00;;;;;;4947876;28;20200;-57
2023/05/01 02:44:02;;;;;;;7.00;6.50;;;18.60;49.30;;;;;;4948042;28;20204;-57
2023/05/01 02:46:31;;;;;;;7.30;6.70;;;18.70;49.10;;;;;;4939624;28;20488;-57
2023/05/01 02:48:59;;;;;;;6.77;6.20;;;18.70;48.60;;;;;;4949307;28;20510;-58
2023/05/01 02:51:26;;;;;;;6.93;6.00;;;18.60;48.50;;;;;;4956229;28;20456;-57
2023/05/01 02:53:53;;;;;;;9.67;7.00;;;18.60;49.10;;;;;;4949921;29;20463;-57
2023/05/01 02:56:19;;;;;;;6.90;6.30;;;18.60;49.30;;;;;;4947599;28;20464;-57
2023/05/01 02:58:44;;;;;;;5.70;5.20;;;18.50;48.70;;;;;;4945197;28;20447;-57
2023/05/01 03:01:11;;;;;;;6.53;5.97;;;18.40;49.20;;;;;;4952540;28;20231;-57
2023/05/01 03:03:36;;;;;;;6.93;6.30;;;18.40;50.10;;;;;;4951493;28;20211;-57
2023/05/01 03:06:02;;;;;;;5.87;5.47;;;18.40;49.50;;;;;;4942858;28;20452;-57
2023/05/01 03:08:28;;;;;;;7.23;6.50;;;18.30;49.90;;;;;;4951909;28;20195;-57
2023/05/01 03:10:53;;;;;;;7.10;6.50;;;17.90;50.40;;;;;;4951562;28;20203;-57
2023/05/01 03:13:19;;;;;;;6.87;6.27;;;18.00;50.60;;;;;;4953394;28;20295;-57
2023/05/01 03:15:45;;;;;;;6.07;5.57;;;18.00;50.50;;;;;;4941582;28;20689;-57
2023/05/01 03:18:10;;;;;;;7.43;6.83;;;18.10;50.80;;;;;;4944409;28;20196;-57
2023/05/01 03:20:36;;;;;;;7.37;6.77;;;18.20;50.80;;;;;;4947953;28;20433;-57
2023/05/01 03:23:02;;;;;;;6.77;6.17;;;18.30;50.40;;;;;;4948986;28;20395;-57
2023/05/01 03:25:27;;;;;;;6.87;6.27;;;18.30;50.40;;;;;;4943733;28;20200;-57
2023/05/01 03:27:53;;;;;;;7.13;6.40;;;18.30;50.20;;;;;;4943374;28;20203;-57
2023/05/01 03:30:18;;;;;;;6.77;6.17;;;18.40;49.80;;;;;;4945259;28;20675;-57
2023/05/01 03:32:44;;;;;;;7.47;6.20;;;18.40;50.20;;;;;;4949491;28;20689;-56
2023/05/01 03:35:10;;;;;;;7.07;6.47;;;18.40;50.20;;;;;;4948959;28;20279;-57
2023/05/01 03:37:35;;;;;;;6.60;6.10;;;18.40;50.30;;;;;;4946783;28;20192;-57
2023/05/01 03:40:01;;;;;;;6.73;5.93;;;18.50;50.30;;;;;;4945211;28;20210;-57
2023/05/01 03:42:27;;;;;;;7.27;6.63;;;18.60;50.10;;;;;;4946041;28;20613;-57
2023/05/01 03:44:52;;;;;;;6.53;5.93;;;18.60;49.60;;;;;;4943013;28;20222;-58
2023/05/01 03:47:18;;;;;;;7.00;6.40;;;18.50;49.40;;;;;;4944278;28;20204;-56
2023/05/01 03:49:44;;;;;;;6.60;5.90;;;18.50;49.30;;;;;;4948998;28;20188;-57
2023/05/01 03:52:10;;;;;;;7.10;6.50;;;18.40;49.30;;;;;;4950731;28;20208;-57
2023/05/01 03:54:37;;;;;;;6.47;5.87;;;18.20;49.60;;;;;;4937678;28;20737;-56
2023/05/01 03:57:03;;;;;;;6.50;6.00;;;18.20;50.50;;;;;;4949469;28;20455;-57
2023/05/01 03:59:28;;;;;;;8.37;7.60;;;18.20;50.60;;;;;;4944326;28;20463;-57
2023/05/01 04:01:54;;;;;;;6.90;6.30;;;18.30;50.70;;;;;;4946086;28;20455;-57
2023/05/01 04:04:19;;;;;;;7.07;6.37;;;18.30;49.70;;;;;;4938724;28;20215;-56
2023/05/01 04:06:47;;;;;;;7.33;6.63;;;18.10;49.60;;;;;;4948402;28;20275;-56
2023/05/01 04:09:13;;;;;;;6.73;6.13;;;18.10;50.40;;;;;;4951012;28;20199;-56
2023/05/01 04:11:38;;;;;;;6.27;5.33;;;18.10;50.50;;;;;;4940958;28;20456;-56
2023/05/01 04:14:04;;;;;;;6.17;5.67;;;18.20;50.50;;;;;;4947218;28;20298;-58
2023/05/01 04:16:30;;;;;;;7.17;6.43;;;18.20;50.60;;;;;;4948162;28;20208;-56
2023/05/01 04:18:56;;;;;;;7.60;6.57;;;18.20;50.50;;;;;;4944684;28;20244;-56
2023/05/01 04:21:21;;;;;;;6.67;6.07;;;18.30;50.60;;;;;;4952640;28;20452;-56
2023/05/01 04:23:47;;;;;;;7.40;6.80;;;18.30;50.70;;;;;;4951589;29;20191;-57
2023/05/01 04:26:12;;;;;;;6.40;5.90;;;18.40;50.70;;;;;;4946446;28;20266;-57
2023/05/01 04:28:38;;;;;;;6.80;6.00;;;18.40;50.30;;;;;;4945372;28;20196;-57
2023/05/01 04:31:03;;;;;;;7.33;6.60;;;18.50;50.30;;;;;;4943007;28;20188;-56
2023/05/01 04:33:29;;;;;;;7.67;6.90;;;18.50;49.90;;;;;;4951710;28;20251;-58
2023/05/01 04:35:55;;;;;;;7.67;6.97;;;18.60;49.50;;;;;;4944223;28;20777;-57
2023/05/01 04:38:20;;;;;;;7.20;6.50;;;18.60;49.50;;;;;;4947966;28;20276;-56
2023/05/01 04:40:46;;;;;;;7.93;6.47;;;18.60;50.30;;;;;;4941815;28;20203;-57
2023/05/01 04:43:12;;;;;;;7.43;6.73;;;18.50;49.50;;;;;;4939644;28;20259;-56
2023/05/01 04:45:37;;;;;;;5.70;5.20;;;18.50;50.00;;;;;;4943928;28;20192;-57
2023/05/01 04:48:03;;;;;;;6.87;6.37;;;18.60;50.50;;;;;;4949315;28;20227;-57
2023/05/01 04:50:30;;;;;;;7.07;6.37;;;18.60;50.40;;;;;;4941593;28;20283;-57
2023/05/01 04:52:56;;;;;;;8.57;6.30;;;18.60;49.70;;;;;;4947567;28;20879;-56
2023/05/01 04:55:24;;;;;;;6.97;6.23;;;18.60;49.60;;;;;;4944114;28;20490;-56
2023/05/01 04:57:50;;;;;;;6.47;5.97;;;18.50;49.30;;;;;;4949064;29;20566;-57
2023/05/01 05:00:17;;;;;;;6.60;6.00;;;18.50;49.70;;;;;;4951639;29;20446;-56
2023/05/01 05:02:45;;;;;;;7.57;6.77;;;18.40;49.60;;;;;;4947942;28;20224;-56
2023/05/01 05:05:10;;;;;;;6.90;6.30;;;18.30;49.60;;;;;;4946721;28;20482;-57
2023/05/01 05:07:36;;;;;;;6.63;5.93;;;18.30;49.80;;;;;;4945324;28;20789;-56
2023/05/01 05:10:01;;;;;;;7.40;6.47;;;18.20;50.20;;;;;;4940541;28;20243;-56
2023/05/01 05:12:27;;;;;;;6.93;6.33;;;18.20;50.70;;;;;;4946254;28;20283;-57
2023/05/01 05:14:53;;;;;;;8.60;6.50;;;18.30;50.90;;;;;;4945555;28;20287;-56
2023/05/01 05:17:18;;;;;;;9.93;6.60;;;18.00;50.10;;;;;;4948516;28;20703;-57
2023/05/01 05:19:44;;;;;;;7.07;6.47;;;17.80;51.30;;;;;;4937576;28;21047;-57
2023/05/01 05:22:11;;;;;;;6.70;6.10;;;17.90;51.50;;;;;;4948546;28;20280;-57
2023/05/01 05:24:37;;;;;;;7.87;7.13;;;18.10;51.40;;;;;;4950516;28;20206;-57
2023/05/01 05:27:03;;;;;;;7.47;6.77;;;18.20;51.00;;;;;;4942721;28;20463;-57
2023/05/01 05:29:28;;;;;;;6.93;6.20;;;18.30;50.50;;;;;;4953679;28;20447;-57
2023/05/01 05:31:55;;;;;;;6.60;6.03;;;18.40;50.30;;;;;;4939678;28;20291;-57
2023/05/01 05:34:24;;;;;;;7.20;6.53;;;18.40;50.30;;;;;;4940969;28;20234;-57
2023/05/01 05:36:50;;;;;;;7.33;6.73;;;18.40;50.00;;;;;;4939385;28;20483;-57
2023/05/01 05:39:16;;;;;;;7.60;6.37;;;18.40;49.80;;;;;;4942776;28;20452;-57
2023/05/01 05:41:41;;;;;;;6.53;5.93;;;18.30;49.80;;;;;;4943799;28;20204;-57
2023/05/01 05:44:07;;;;;;;7.20;6.60;;;18.10;50.00;;;;;;4944153;28;20451;-57
2023/05/01 05:46:33;;;;;;;6.40;5.80;;;18.10;50.30;;;;;;4944715;28;20610;-57
2023/05/01 05:48:58;;;;;;;7.43;6.70;;;17.90;50.70;;;;;;4941901;28;22144;-57
2023/05/01 05:51:24;;;;;;;7.80;7.10;;;17.80;51.20;;;;;;4946652;28;20250;-57
2023/05/01 05:53:49;;;;;;;6.87;6.27;;;17.80;51.50;;;;;;4935409;28;20238;-57
2023/05/01 05:56:15;;;;;;;7.20;6.60;;;17.70;52.00;;;;;;4943001;28;20345;-58
2023/05/01 05:58:41;;;;;;;5.80;5.40;;;17.80;51.90;;;;;;4940599;28;20552;-57
2023/05/01 06:01:08;;;;;;;6.93;6.43;;;17.70;51.70;;;;;;4940127;28;20805;-57
2023/05/01 06:03:34;;;;;;;10.40;8.27;;;17.70;51.50;;;;;;4965040;28;20591;-57
2023/05/01 06:06:00;;;;;;;9.30;7.70;;;17.20;51.90;;;;;;4970214;28;20453;-57
2023/05/01 06:08:26;;;;;;;6.83;6.13;;;17.00;51.90;;;;;;4949759;28;20440;-58
2023/05/01 06:10:52;;;;;;;10.10;6.40;;;16.60;53.10;;;;;;4951697;29;20218;-56
2023/05/01 06:13:17;;;;;;;6.87;6.37;;;16.80;53.50;;;;;;4949192;28;20199;-57
2023/05/01 06:15:43;;;;;;;6.67;6.17;;;17.00;53.10;;;;;;4943969;28;20280;-55
2023/05/01 06:18:10;;;;;;;7.20;6.70;;;17.20;53.00;;;;;;4949022;28;20204;-57
2023/05/01 06:20:37;;;;;;;7.40;6.70;;;17.40;53.20;;;;;;4954821;28;20565;-58
2023/05/01 06:23:02;;;;;;;7.57;6.97;;;17.50;53.40;;;;;;4945495;29;20451;-58
2023/05/01 06:25:28;;;;;;;6.00;5.50;;;17.60;53.20;;;;;;4949620;28;20474;-58
2023/05/01 06:27:54;;;;;;;6.60;6.10;;;17.60;52.30;;;;;;4942073;28;20197;-58
2023/05/01 06:30:20;;;;;;;6.10;5.60;;;17.50;52.00;;;;;;4945728;28;20481;-57
2023/05/01 06:32:46;;;;;;;6.30;5.70;;;17.60;52.10;;;;;;4935119;28;20196;-58
2023/05/01 06:35:12;;;;;;;6.40;5.90;;;17.60;51.60;;;;;;4941500;28;20887;-58
2023/05/01 06:37:38;;;;;;;5.90;5.30;;;17.50;51.30;;;;;;4943373;29;20200;-57
2023/05/01 06:40:07;;;;;;;5.10;4.70;;;17.30;52.80;;;;;;4947456;28;20243;-58
2023/05/01 06:42:33;;;;;;;5.80;5.40;;;17.30;52.90;;;;;;4950212;28;20437;-58
2023/05/01 06:44:58;;;;;;;5.33;4.93;;;17.60;51.50;;;;;;4942506;28;20479;-58
2023/05/01 06:47:24;;;;;;;5.03;4.63;;;17.60;50.90;;;;;;4942268;28;20645;-58
2023/05/01 06:49:49;;;;;;;7.87;6.20;;;17.70;50.90;;;;;;4948093;28;20282;-58
2023/05/01 06:52:15;;;;;;;5.77;5.20;;;17.80;50.80;;;;;;4950910;28;20256;-58
2023/05/01 06:54:40;;;;;;;6.03;5.37;;;17.90;50.60;;;;;;4949003;29;20238;-58
2023/05/01 06:57:06;;;;;;;5.63;5.20;;;17.70;50.40;;;;;;4938531;28;20195;-58
2023/05/01 06:59:31;;;;;;;5.83;5.37;;;17.60;50.60;;;;;;4938731;29;20196;-58
2023/05/01 07:01:57;;;;;;;5.80;5.30;;;17.60;50.20;;;;;;4936566;29;20201;-58
2023/05/01 07:04:23;;;;;;;4.90;4.47;;;17.50;50.10;;;;;;4939036;28;20227;-58
2023/05/01 07:06:48;;;;;;;5.73;5.23;;;17.50;50.30;;;;;;4945130;28;20203;-58
2023/05/01 07:09:14;;;;;;;5.37;4.97;;;17.40;50.90;;;;;;4945196;28;20196;-58
2023/05/01 07:11:41;;;;;;;5.90;5.37;;;17.40;51.20;;;;;;4969456;28;20211;-57
2023/05/01 07:14:07;;;;;;;5.93;5.40;;;17.20;51.40;;;;;;4954045;28;20576;-58
2023/05/01 07:16:33;;;;;;;6.40;5.87;;;16.90;52.40;;;;;;4945191;28;20452;-58
2023/05/01 07:18:59;;;;;;;5.57;5.07;;;17.10;52.40;;;;;;4952197;28;20450;-58
2023/05/01 07:21:24;;;;;;;6.63;6.03;;;17.30;52.50;;;;;;4949462;28;20683;-59
2023/05/01 07:23:50;;;;;;;5.70;5.20;;;17.20;52.80;;;;;;4948778;28;20656;-58
2023/05/01 07:26:16;;;;;;;6.50;5.90;;;17.50;52.80;;;;;;4944135;28;20207;-58
2023/05/01 07:28:41;;;;;;;5.90;5.40;;;17.70;52.60;;;;;;4948582;28;20900;-58
2023/05/01 07:31:09;;;;;;;6.27;5.67;;;17.70;52.20;;;;;;4945133;28;20299;-58
2023/05/01 07:33:35;;;;;;;9.50;7.20;;;17.90;52.10;;;;;;4942354;29;20198;-58
2023/05/01 07:36:00;;;;;;;7.00;6.40;;;18.10;52.30;;;;;;4950420;29;20495;-58
2023/05/01 07:38:26;;;;;;;6.90;6.27;;;18.10;52.40;;;;;;4947345;29;20224;-59
2023/05/01 07:40:52;;;;;;;6.60;5.93;;;18.20;52.30;;;;;;4942796;28;20550;-58
2023/05/01 07:43:18;;;;;;;6.97;6.27;;;18.20;52.60;;;;;;4949247;28;20192;-57
2023/05/01 07:45:57;;;;;;;7.70;7.00;;;18.20;52.70;;;;;;4943553;28;20442;-57
2023/05/01 07:48:23;;;;;;;6.90;6.30;;;18.00;52.90;;;;;;4944385;29;20237;-57
2023/05/01 07:50:49;;;;;;;6.50;5.90;;;17.80;53.90;;;;;;4950313;28;20444;-57
2023/05/01 07:53:14;;;;;;;6.53;5.80;;;17.70;54.10;;;;;;4946728;28;20447;-58
2023/05/01 07:55:40;;;;;;;6.27;5.77;;;17.70;54.30;;;;;;4948758;28;20235;-58
2023/05/01 07:58:06;;;;;;;6.80;6.23;;;17.60;53.90;;;;;;4944368;28;20640;-58
2023/05/01 08:00:32;;;;;;;7.10;6.50;;;17.40;53.90;;;;;;4945926;29;20234;-58
2023/05/01 08:02:57;;;;;;;6.03;5.47;;;17.40;53.90;;;;;;4948510;29;20282;-58
2023/05/01 08:05:25;;;;;;;6.00;5.50;;;17.40;54.20;;;;;;4943724;29;20713;-58
2023/05/01 08:07:51;;;;;;;5.67;5.17;;;17.50;54.30;;;;;;4950849;28;20196;-58
2023/05/01 08:10:16;;;;;;;5.90;5.40;;;17.50;54.50;;;;;;4947491;28;21259;-58
2023/05/01 08:12:42;;;;;;;6.23;5.70;;;17.80;54.50;;;;;;4944175;28;20276;-58
2023/05/01 08:15:08;;;;;;;7.00;5.90;;;17.90;54.20;;;;;;4941889;28;20239;-59
2023/05/01 08:17:36;;;;;;;6.80;6.20;;;18.10;53.60;;;;;;4941246;28;20199;-58
2023/05/01 08:20:03;;;;;;;6.30;5.80;;;18.00;52.80;;;;;;4940658;28;20502;-59
2023/05/01 08:22:28;;;;;;;6.80;6.30;;;18.10;53.10;;;;;;4937354;28;20517;-59
2023/05/01 08:24:54;;;;;;;8.63;6.20;;;18.10;52.70;;;;;;4944333;28;20608;-59
2023/05/01 08:27:20;;;;;;;6.17;5.67;;;18.20;52.90;;;;;;4938274;28;20197;-58
2023/05/01 08:29:46;;;;;;;6.30;5.70;;;18.20;52.50;;;;;;4937887;28;20459;-59
2023/05/01 08:32:13;;;;;;;6.10;5.60;;;18.40;52.70;;;;;;4946077;29;20572;-59
2023/05/01 08:34:38;;;;;;;6.20;5.67;;;18.40;52.60;;;;;;4951355;29;20696;-59
2023/05/01 08:37:04;;;;;;;5.80;4.97;;;18.40;52.40;;;;;;4945709;28;20512;-59
2023/05/01 08:39:30;;;;;;;6.17;5.67;;;18.50;52.30;;;;;;4944178;28;20199;-59
2023/05/01 08:41:57;;;;;;;5.90;5.40;;;18.70;52.20;;;;;;4953646;29;20206;-59
2023/05/01 08:44:25;;;;;;;6.07;5.37;;;18.60;51.90;;;;;;4950221;29;20301;-59
2023/05/01 08:47:08;;;;;;;5.90;5.40;;;18.70;52.10;;;;;;4946074;28;20554;-59
2023/05/01 08:49:36;;;;;;;5.63;5.17;;;18.80;51.70;;;;;;4941635;28;20466;-58
2023/05/01 08:52:05;;;;;;;13.13;6.00;;;18.90;51.50;;;;;;4957472;28;20797;-59
2023/05/01 08:54:31;;;;;;;6.33;5.53;;;18.80;51.40;;;;;;4945518;28;20482;-58
2023/05/01 08:57:03;;;;;;;5.70;5.20;;;18.80;51.50;;;;;;4944640;28;20451;-59
2023/05/01 08:59:34;;;;;;;6.17;5.67;;;19.10;51.30;;;;;;4942677;29;20455;-58
2023/05/01 09:02:03;;;;;;;6.00;5.33;;;19.00;51.50;;;;;;4944848;28;20446;-58
2023/05/01 09:04:32;;;;;;;6.00;5.50;;;18.70;51.80;;;;;;4946152;28;20479;-60
2023/05/01 09:07:01;;;;;;;6.77;5.67;;;19.00;51.70;;;;;;4950614;28;21151;-59
2023/05/01 09:09:30;;;;;;;5.30;4.90;;;19.30;51.10;;;;;;4939821;28;21020;-59
2023/05/01 09:12:19;;;;;;;5.63;5.13;;;19.50;50.90;;;;;;4942046;28;20452;-58
2023/05/01 09:14:45;;;;;;;5.77;5.33;;;19.70;50.90;;;;;;4936960;28;20487;-59
2023/05/01 09:17:12;;;;;;;7.70;5.33;;;19.80;50.50;;;;;;4948020;28;20518;-59
2023/05/01 09:19:37;;;;;;;6.23;5.73;;;19.80;49.40;;;;;;4947658;28;20297;-58
2023/05/01 09:22:03;;;;;;;6.17;5.57;;;20.00;49.50;;;;;;4945297;28;20480;-58
2023/05/01 09:24:29;;;;;;;6.43;5.83;;;20.20;49.40;;;;;;4940096;29;20222;-59
2023/05/01 09:26:57;;;;;;;7.83;6.00;;;20.40;49.30;;;;;;4941784;29;20208;-59
2023/05/01 09:29:39;;;;;;;8.20;5.43;;;20.60;49.70;;;;;;4946871;28;20282;-58
2023/05/01 09:32:28;;;;;;;6.93;6.30;;;20.50;48.90;;;;;;4944941;28;20463;-59
2023/05/01 09:35:07;;;;;;;6.23;5.67;;;20.00;48.70;;;;;;4943963;28;20505;-58
2023/05/01 09:37:33;;;;;;;7.10;6.50;;;20.00;49.40;;;;;;4943158;28;20970;-59
2023/05/01 09:40:12;;;;;;;5.93;5.40;;;20.20;48.80;;;;;;4949359;28;20935;-58
2023/05/01 09:42:38;;;;;;;6.10;5.63;;;20.10;49.80;;;;;;4949546;28;20463;-58
2023/05/01 09:45:14;;;;;;;5.80;5.40;;;20.40;49.40;;;;;;4943884;28;20474;-59
2023/05/01 09:47:42;;;;;;;6.53;5.93;;;20.60;48.20;;;;;;4938099;28;20448;-59
2023/05/01 09:50:08;;;;;;;5.63;5.13;;;21.00;47.80;;;;;;4944583;28;20452;-59
2023/05/01 09:52:34;;;;;;;5.93;5.43;;;21.10;47.30;;;;;;4947800;28;20447;-59
2023/05/01 09:55:15;;;;;;;5.67;5.17;;;21.20;46.30;;;;;;4946516;28;20835;-59
2023/05/01 09:57:41;;;;;;;6.60;6.00;;;21.20;46.20;;;;;;4939584;28;20196;-59
2023/05/01 10:00:13;;;;;;;5.77;5.27;;;21.00;46.80;;;;;;4939325;28;20486;-59
2023/05/01 10:02:40;;;;;;;7.53;6.40;;;21.20;47.40;;;;;;4946574;28;20479;-59
2023/05/01 10:05:08;;;;;;;7.03;6.43;;;21.50;47.80;;;;;;4965442;28;20509;-59
2023/05/01 10:07:33;;;;;;;6.47;5.83;;;21.80;47.60;;;;;;4951687;28;20447;-59
2023/05/01 10:10:23;;;;;;;6.73;6.13;;;21.90;47.00;;;;;;4941904;28;20452;-59
2023/05/01 10:12:49;;;;;;;6.10;5.60;;;22.10;47.20;;;;;;4936641;28;20251;-59
2023/05/01 10:15:15;;;;;;;7.20;6.60;;;22.20;47.40;;;;;;4942757;28;20495;-58
2023/05/01 10:17:42;;;;;;;7.47;6.77;;;22.30;46.00;;;;;;4953303;28;20196;-59
2023/05/01 10:20:11;;;;;;;6.77;6.27;;;22.50;45.00;;;;;;4948142;28;20563;-59
2023/05/01 10:22:38;;;;;;;6.47;5.97;;;22.60;44.70;;;;;;4940123;29;20823;-59
2023/05/01 10:25:07;;;;;;;6.50;6.00;;;22.50;44.60;;;;;;4944864;28;20471;-59
2023/05/01 10:27:34;;;;;;;5.63;5.13;;;22.50;44.70;;;;;;4943857;28;20523;-59
2023/05/01 10:30:06;;;;;;;6.67;6.13;;;22.50;44.60;;;;;;4948024;28;20479;-58
2023/05/01 10:32:32;;;;;;;6.10;5.60;;;22.70;46.00;;;;;;4946827;29;20459;-59
2023/05/01 10:35:03;;;;;;;11.23;6.17;;;22.80;46.00;;;;;;4938666;29;20539;-59
2023/05/01 10:37:33;;;;;;;6.90;6.33;;;22.90;46.50;;;;;;4938301;29;20531;-59
2023/05/01 10:39:59;;;;;;;7.50;6.90;;;22.90;45.40;;;;;;4939760;28;20478;-59
2023/05/01 10:42:25;;;;;;;7.23;6.63;;;22.90;43.90;;;;;;4943090;28;20444;-59
2023/05/01 10:45:29;;;;;;;6.60;6.00;;;23.10;43.30;;;;;;4945412;28;20212;-59
2023/05/01 10:47:54;;;;;;;6.40;5.90;;;23.00;44.10;;;;;;4947157;28;20462;-59
2023/05/01 10:50:20;;;;;;;6.93;6.13;;;23.00;44.80;;;;;;4946800;28;20447;-59
2023/05/01 10:53:11;;;;;;;6.00;5.60;;;23.00;44.40;;;;;;4960830;28;20191;-59
2023/05/01 10:55:44;;;;;;;6.53;5.93;;;23.10;44.20;;;;;;4944622;28;20251;-58
2023/05/01 10:58:11;;;;;;;6.30;5.90;;;22.80;42.50;;;;;;4944498;28;20947;-59
2023/05/01 11:00:36;;;;;;;6.00;5.60;;;22.80;42.70;;;;;;4948465;29;20450;-58
2023/05/01 11:03:20;;;;;;;6.80;6.30;;;22.90;42.40;;;;;;4943475;28;20452;-58
2023/05/01 11:06:04;;;;;;;6.77;6.27;;;23.10;43.30;;;;;;4946679;28;20283;-59
2023/05/01 11:08:37;;;;;;;7.27;6.60;;;23.20;44.40;;;;;;4946975;28;20451;-59
2023/05/01 11:11:25;;;;;;;7.77;7.10;;;23.30;43.80;;;;;;4949311;28;20458;-59
2023/05/01 11:14:05;;;;;;;6.50;6.00;;;23.30;43.30;;;;;;4939870;29;20455;-59
2023/05/01 11:16:39;;;;;;;6.10;5.70;;;23.30;44.00;;;;;;4944985;29;20573;-59
2023/05/01 11:19:31;;;;;;;8.73;6.97;;;23.40;43.70;;;;;;4950192;28;20479;-59
2023/05/01 11:21:57;;;;;;;7.40;6.70;;;23.40;43.50;;;;;;4954370;28;20820;-59
2023/05/01 11:24:31;;;;;;;6.63;6.13;;;23.40;43.20;;;;;;4945222;29;20451;-59
2023/05/01 11:26:58;;;;;;;7.23;6.53;;;23.50;43.50;;;;;;4949442;29;20324;-58
2023/05/01 11:29:30;;;;;;;6.47;5.97;;;23.50;43.50;;;;;;4948182;28;20495;-59
2023/05/01 11:31:56;;;;;;;7.13;6.53;;;23.40;43.30;;;;;;4947614;28;20538;-58
2023/05/01 11:34:22;;;;;;;7.83;7.10;;;23.40;43.60;;;;;;4945741;28;20591;-59
2023/05/01 11:36:49;;;;;;;7.00;6.50;;;23.50;43.30;;;;;;4945651;28;20748;-59
2023/05/01 11:39:16;;;;;;;6.70;6.20;;;23.40;42.70;;;;;;4942791;28;21069;-59
2023/05/01 11:41:41;;;;;;;7.20;6.60;;;23.30;42.80;;;;;;4950124;28;20476;-58
2023/05/01 11:44:10;;;;;;;7.63;7.00;;;23.30;42.60;;;;;;4950083;28;20950;-59
2023/05/01 11:46:35;;;;;;;8.40;7.60;;;23.40;43.20;;;;;;4948499;28;20688;-59
2023/05/01 11:49:02;;;;;;;7.70;6.90;;;23.50;42.90;;;;;;4944004;28;20452;-57
2023/05/01 11:51:28;;;;;;;7.40;6.80;;;23.40;42.80;;;;;;4949984;28;20195;-58
2023/05/01 11:54:10;;;;;;;6.93;6.33;;;23.50;42.40;;;;;;4949888;29;20838;-58
2023/05/01 11:56:36;;;;;;;7.00;6.33;;;23.60;42.60;;;;;;4944620;28;20522;-58
2023/05/01 11:59:09;;;;;;;6.93;6.33;;;23.70;43.40;;;;;;4949540;28;20438;-59
2023/05/01 12:01:37;;;;;;;5.97;5.50;;;23.60;44.10;;;;;;4953943;28;20535;-58
2023/05/01 12:04:03;;;;;;;6.60;6.00;;;23.60;44.00;;;;;;4948012;28;20442;-59
2023/05/01 12:06:45;;;;;;;7.43;6.73;;;23.70;42.50;;;;;;4953351;28;20448;-58
2023/05/01 12:09:22;;;;;;;7.03;6.40;;;23.60;42.00;;;;;;4949732;28;20455;-58
2023/05/01 12:11:50;;;;;;;7.10;6.50;;;23.50;42.50;;;;;;4951300;28;20479;-58
2023/05/01 12:14:17;;;;;;;6.93;6.43;;;23.50;43.00;;;;;;4948063;29;20431;-58
2023/05/01 12:16:43;;;;;;;6.97;6.37;;;23.50;42.10;;;;;;4944397;29;20440;-58
2023/05/01 12:19:12;;;;;;;8.83;6.40;;;23.40;41.90;;;;;;4945187;28;20432;-59
2023/05/01 12:21:37;;;;;;;6.93;6.43;;;23.40;42.20;;;;;;4956344;28;21006;-58
2023/05/01 12:24:11;;;;;;;6.53;6.03;;;23.40;42.10;;;;;;4946412;29;20543;-58
2023/05/01 12:26:37;;;;;;;7.40;6.77;;;23.40;42.10;;;;;;4944051;29;20211;-58
2023/05/01 12:29:05;;;;;;;7.50;6.90;;;23.50;41.80;;;;;;4941799;28;20808;-58
2023/05/01 12:31:31;;;;;;;6.73;6.00;;;23.60;41.70;;;;;;4944453;28;20204;-58
2023/05/01 12:33:58;;;;;;;8.20;6.80;;;23.60;42.80;;;;;;4948202;29;20450;-58
2023/05/01 12:36:27;;;;;;;6.50;6.00;;;23.70;43.40;;;;;;4945973;28;21362;-58
2023/05/01 12:39:08;;;;;;;6.80;6.30;;;23.80;42.40;;;;;;4945276;29;20485;-58
2023/05/01 12:41:39;;;;;;;7.00;6.20;;;24.00;41.80;;;;;;4942393;28;20947;-57
2023/05/01 12:44:21;;;;;;;6.40;5.93;;;24.10;41.70;;;;;;4946120;28;20459;-58
2023/05/01 12:46:55;;;;;;;6.47;5.97;;;24.20;42.50;;;;;;4953524;28;20436;-59
2023/05/01 12:49:21;;;;;;;5.83;5.30;;;24.10;42.70;;;;;;4951762;28;20490;-57
2023/05/01 12:51:52;;;;;;;5.30;4.90;;;24.20;42.00;;;;;;4959053;28;20427;-58